Latest Weather Observations for Kalgoorlie-Boulder

IDW60801

Issued at 6:13 pm WST Tuesday 23 October 2018 (issued every 10 minutes, with the page automatically refreshed every 10 minutes)

About weather observations | Map of weather stations | Latest weather observations for WA | Other Formats
Station Details ID: 012038 Name: KALGOORLIE-BOULDER AIRPORT Lat: -30.78 Lon: 121.45 Height: 365.3 m
Data from the previous 72 hours. | See also: Recent months at Kalgoorlie-Boulder
Date/Time
WST
Temp
°C
App
Temp
°C
Dew
Point
°C
Rel
Hum
%
Delta-T
°C
Wind Press
QNH
hPa
Press
MSL
hPa
Rain since
9am
mm
Dir  Spd
km/h
Gust
km/h
Spd
kts
Gust
kts
23/06:00pm 23.9 20.8 3.8 27 10.0 NE 9 11 5 6 1014.6 1013.5 0.0
23/05:30pm 24.3 20.9 4.1 27 10.2 NNE 11 17 6 9 1014.7 1013.6 0.0
23/05:00pm 25.0 22.6 4.2 26 10.5 NNE 6 13 3 7 1014.6 1013.5 0.0
23/04:30pm 25.1 21.4 4.3 26 10.6 NE 13 19 7 10 1014.7 1013.6 0.0
23/04:00pm 25.3 22.5 5.0 27 10.4 NNE 9 20 5 11 1014.6 1013.5 0.0
23/03:30pm 24.9 22.6 4.6 27 10.3 ENE 6 9 3 5 1014.8 1013.7 0.0
23/03:00pm 24.5 21.6 4.8 28 10.0 NE 9 13 5 7 1015.1 1014.0 0.0
23/02:30pm 24.4 21.5 4.7 28 10.0 N 9 17 5 9 1015.4 1014.3 0.0
23/02:00pm 24.3 21.9 5.1 29 9.8 NE 7 13 4 7 1015.9 1014.8 0.0
23/01:30pm 23.2 19.7 5.6 32 9.0 ESE 13 28 7 15 1016.5 1015.5 0.0
23/01:00pm 22.6 19.6 6.0 34 8.5 ENE 11 22 6 12 1016.9 1015.9 0.0
23/12:30pm 22.3 19.4 6.5 36 8.2 NNE 11 20 6 11 1017.6 1016.5 0.0
23/12:00pm 21.5 18.0 7.0 39 7.5 E 15 30 8 16 1017.9 1016.8 0.0
23/11:30am 19.9 15.7 7.3 44 6.5 NE 19 28 10 15 1018.5 1017.4 0.0
23/11:00am 19.6 15.9 8.0 47 6.1 ENE 17 26 9 14 1018.9 1017.9 0.0
23/10:30am 18.3 14.6 8.0 51 5.4 ENE 17 30 9 16 1019.4 1018.4 0.0
23/10:00am 17.6 13.4 7.6 52 5.1 ENE 19 26 10 14 1020.0 1019.0 0.0
23/09:30am 16.4 12.0 7.6 56 4.5 ENE 20 30 11 16 1020.3 1019.2 0.0
23/09:00am 16.0 11.7 8.0 59 4.1 E 20 32 11 17 1020.7 1019.6 0.0
23/08:30am 14.6 9.9 7.6 63 3.5 E 22 30 12 16 1020.9 1019.8 0.0
23/08:00am 13.7 8.9 7.5 66 3.1 ENE 22 32 12 17 1020.9 1019.8 0.0
23/07:30am 12.6 7.4 7.1 69 2.7 E 24 32 13 17 1020.9 1019.8 0.0
23/07:00am 12.3 6.3 7.2 71 2.5 E 28 37 15 20 1020.8 1019.7 0.0
23/06:30am 12.0 7.5 6.9 71 2.5 E 20 30 11 16 1020.7 1019.6 0.0
23/06:00am 11.8 7.2 6.7 71 2.5 E 20 28 11 15 1020.3 1019.2 0.0
23/05:30am 11.3 6.8 6.8 74 2.2 E 20 28 11 15 1019.7 1018.7 0.0
23/05:00am 11.4 7.1 7.1 75 2.1 E 19 24 10 13 1019.3 1018.3 0.0
23/04:30am 11.7 7.9 7.4 75 2.1 E 17 22 9 12 1019.1 1018.1 0.0
23/04:00am 12.1 7.7 7.6 74 2.2 ESE 20 26 11 14 1018.8 1017.8 0.0
23/03:30am 12.5 8.1 7.6 72 2.4 ESE 20 28 11 15 1018.6 1017.6 0.0
23/03:00am 12.3 8.1 5.9 65 3.1 ESE 17 24 9 13 1018.4 1017.3 0.0
23/02:30am 12.9 7.8 5.8 62 3.4 ESE 22 28 12 15 1018.0 1016.9 0.0
23/02:00am 13.1 8.3 5.8 61 3.5 ESE 20 28 11 15 1018.1 1017.0 0.0
23/01:30am 13.7 8.5 5.3 57 4.0 SE 22 30 12 16 1018.2 1017.1 0.0
23/01:00am 14.2 9.5 5.0 54 4.4 SE 19 26 10 14 1018.4 1017.3 0.0
23/12:30am 14.7 9.7 4.7 51 4.8 SE 20 30 11 16 1018.6 1017.6 0.0
23/12:00am 15.2 9.8 4.3 48 5.1 SE 22 32 12 17 1018.7 1017.7 0.0
 
Date/Time
WST
Temp
°C
App
Temp
°C
Dew
Point
°C
Rel
Hum
%
Delta-T
°C
Wind Press
QNH
hPa
Press
MSL
hPa
Rain since
9am
mm
Dir  Spd
km/h
Gust
km/h
Spd
kts
Gust
kts
22/11:30pm 15.5 10.2 2.0 40 6.1 SE 19 30 10 16 1018.7 1017.7 0.0
22/11:00pm 13.9 9.7 1.5 43 5.5 S 13 17 7 9 1018.5 1017.4 0.0
22/10:30pm 14.5 11.0 1.4 41 5.8 SSE 9 11 5 6 1018.5 1017.4 0.0
22/10:00pm 15.1 11.6 1.3 39 6.1 S 9 9 5 5 1018.5 1017.4 0.0
22/09:30pm 15.4 11.9 1.2 38 6.3 S 9 11 5 6 1018.7 1017.7 0.0
22/09:00pm 16.5 12.6 1.0 35 6.9 S 11 17 6 9 1018.6 1017.6 0.0
22/08:30pm 17.0 12.8 1.4 35 7.1 SSW 13 15 7 8 1018.6 1017.6 0.0
22/08:00pm 16.4 12.9 1.3 36 6.8 S 9 11 5 6 1018.4 1017.3 0.0
22/07:30pm 18.3 14.4 0.9 31 7.9 SSW 11 15 6 8 1018.2 1017.1 0.0
22/07:00pm 18.5 14.9 0.6 30 8.0 SW 9 11 5 6 1017.8 1016.7 0.0
22/06:30pm 19.6 16.0 0.6 28 8.6 SSW 9 15 5 8 1017.3 1016.3 0.0
22/06:00pm 21.1 16.3 0.3 25 9.5 SSW 15 19 8 10 1016.9 1015.9 0.0
22/05:30pm 22.0 16.8 -0.1 23 10.1 SSW 17 24 9 13 1016.7 1015.7 0.0
22/05:00pm 22.6 17.7 -0.2 22 10.4 SSW 15 26 8 14 1016.5 1015.5 0.0
22/04:30pm 23.2 18.0 0.3 22 10.6 SW 17 28 9 15 1016.3 1015.3 0.0
22/04:00pm 23.3 18.0 -0.9 20 11.0 SW 17 22 9 12 1016.2 1015.2 0.0
22/03:30pm 23.2 19.6 0.3 22 10.6 SW 9 26 5 14 1015.9 1014.8 0.0
22/03:00pm 23.5 18.7 -0.1 21 10.9 SW 15 28 8 15 1015.9 1014.8 0.0
22/02:30pm 23.0 18.7 0.8 23 10.4 SW 13 24 7 13 1016.1 1015.0 0.0
22/02:00pm 23.0 18.0 1.4 24 10.2 SSW 17 30 9 16 1016.3 1015.3 0.0
22/01:30pm 22.2 17.9 1.3 25 9.8 SSE 13 20 7 11 1016.8 1015.8 0.0
22/01:00pm 20.8 17.4 1.6 28 9.0 SSE 9 22 5 12 1017.1 1016.1 0.0
22/12:30pm 20.9 17.6 2.2 29 8.9 SSW 9 20 5 11 1017.3 1016.3 0.0
22/12:00pm 19.8 15.3 2.2 31 8.3 SW 15 28 8 15 1017.8 1016.7 0.0
22/11:30am 19.1 15.0 2.5 33 7.8 SW 13 32 7 17 1018.2 1017.1 0.0
22/11:00am 18.0 14.0 3.1 37 7.0 SW 13 32 7 17 1018.6 1017.6 0.0
22/10:30am 17.4 13.1 3.3 39 6.6 SW 15 24 8 13 1018.9 1017.9 0.0
22/10:00am 16.3 13.0 4.7 46 5.6 SW 11 22 6 12 1019.1 1018.1 0.0
22/09:30am 16.4 12.8 5.1 47 5.5 WSW 13 22 7 12 1019.3 1018.3 0.0
22/09:00am 14.9 10.4 4.3 49 5.0 SW 17 24 9 13 1019.5 1018.5 0.0
22/08:30am 14.6 10.6 5.1 53 4.6 SSW 15 30 8 16 1019.5 1018.5 0.0
22/08:00am 13.8 9.8 4.9 55 4.2 SSW 15 22 8 12 1019.3 1018.3 0.0
22/07:30am 13.3 8.5 4.7 56 4.0 SSW 19 24 10 13 1019.2 1018.2 0.0
22/07:00am 12.9 7.2 4.8 58 3.8 SSW 24 33 13 18 1019.1 1018.1 0.0
22/06:30am 12.6 7.0 5.3 61 3.5 SSW 24 33 13 18 1018.8 1017.8 0.0
22/06:00am 12.3 8.2 6.4 67 2.8 SSW 17 26 9 14 1018.3 1017.2 0.0
22/05:30am 11.9 8.2 6.2 68 2.7 SSW 15 20 8 11 1017.7 1016.6 0.0
22/05:00am 12.1 8.4 6.4 68 2.8 SW 15 22 8 12 1017.1 1016.1 0.0
22/04:30am 12.5 8.8 6.3 66 3.0 SW 15 22 8 12 1016.7 1015.7 0.0
22/04:00am 13.3 8.9 6.6 64 3.3 SSW 19 26 10 14 1016.4 1015.4 0.0
22/03:30am 13.8 9.9 6.9 63 3.4 SW 17 22 9 12 1016.2 1015.2 0.0
22/03:00am 14.3 10.0 6.9 61 3.7 SSW 19 26 10 14 1015.9 1014.8 0.0
22/02:30am 14.9 9.7 7.2 60 3.9 SSW 24 35 13 19 1015.8 1014.7 0.0
22/02:00am 15.6 11.4 8.4 62 3.7 SW 20 30 11 16 1015.6 1014.5 0.0
22/01:30am 16.1 12.1 8.3 60 4.0 SW 19 28 10 15 1015.5 1014.4 0.0
22/01:00am 16.6 12.4 8.1 57 4.4 SW 20 30 11 16 1015.4 1014.3 0.0
22/12:30am 17.4 12.6 7.5 52 5.1 SW 22 32 12 17 1015.4 1014.3 0.0
22/12:00am 17.7 13.4 7.2 50 5.4 SW 19 24 10 13 1015.3 1014.2 0.0
 
Date/Time
WST
Temp
°C
App
Temp
°C
Dew
Point
°C
Rel
Hum
%
Delta-T
°C
Wind Press
QNH
hPa
Press
MSL
hPa
Rain since
9am
mm
Dir  Spd
km/h
Gust
km/h
Spd
kts
Gust
kts
21/11:30pm 18.4 14.0 7.5 49 5.6 WSW 20 28 11 15 1015.4 1014.3 0.0
21/11:00pm 18.5 14.1 7.3 48 5.8 WSW 20 28 11 15 1015.3 1014.2 0.0
21/10:30pm 19.0 14.6 7.4 47 6.0 WSW 20 28 11 15 1015.3 1014.2 0.0
21/10:00pm 19.3 15.2 7.7 47 6.0 WSW 19 26 10 14 1015.3 1014.2 0.0
21/09:30pm 19.5 15.7 7.6 46 6.2 WSW 17 20 9 11 1015.3 1014.2 0.0
21/09:00pm 20.3 16.2 8.0 45 6.5 WSW 19 24 10 13 1015.3 1014.2 0.0
21/08:30pm 20.5 17.1 7.8 44 6.7 WSW 15 20 8 11 1015.1 1014.0 0.0
21/08:00pm 21.4 17.7 8.0 42 7.1 WSW 17 28 9 15 1014.9 1013.8 0.0
21/07:30pm 21.8 17.6 7.6 40 7.5 WSW 19 24 10 13 1014.6 1013.5 0.0
21/07:00pm 22.1 18.2 7.1 38 7.9 WSW 17 24 9 13 1014.1 1013.1 0.0
21/06:30pm 22.8 18.3 7.0 36 8.3 WSW 20 32 11 17 1013.7 1012.6 0.0
21/06:00pm 23.3 18.0 6.6 34 8.7 WSW 24 32 13 17 1013.4 1012.3 0.0
21/05:30pm 24.3 19.6 6.1 31 9.5 WSW 20 30 11 16 1013.0 1011.9 0.0
21/05:00pm 24.9 18.4 4.6 27 10.3 WSW 28 37 15 20 1012.7 1011.6 0.0
21/04:30pm 25.4 19.4 3.4 24 11.0 W 24 37 13 20 1012.6 1011.5 0.0
21/04:00pm 25.9 19.3 1.9 21 11.7 W 26 37 14 20 1012.4 1011.3 0.0
21/03:30pm 25.9 19.0 2.6 22 11.5 W 28 41 15 22 1012.4 1011.3 0.0
21/03:00pm 26.2 19.9 3.5 23 11.4 W 26 41 14 22 1012.4 1011.3 0.0
21/02:30pm 25.6 19.0 4.1 25 10.9 W 28 41 15 22 1012.4 1011.3 0.0
21/02:00pm 26.3 20.3 5.3 26 10.9 WSW 26 41 14 22 1012.5 1011.4 0.0
21/01:30pm 26.1 19.7 5.1 26 10.9 W 28 43 15 23 1013.0 1011.9 0.0
21/01:00pm 24.9 19.5 4.6 27 10.3 W 22 35 12 19 1013.1 1012.0 0.0
21/12:30pm 24.0 18.9 5.8 31 9.4 WNW 22 37 12 20 1013.5 1012.4 0.0
21/12:00pm 24.2 19.4 7.4 34 9.0 WNW 22 35 12 19 1013.8 1012.8 0.0
21/11:30am 23.3 18.1 7.4 36 8.4 WNW 24 37 13 20 1014.4 1013.4 0.0
21/11:00am 22.3 17.6 7.7 39 7.7 NW 22 37 12 20 1015.0 1013.9 0.0
21/10:30am 21.2 16.5 7.8 42 7.1 WNW 22 33 12 18 1015.5 1014.4 0.0
21/10:00am 20.4 16.6 7.7 44 6.7 WNW 17 24 9 13 1015.9 1014.8 0.0
21/09:30am 19.4 15.7 7.8 47 6.1 WNW 17 24 9 13 1016.2 1015.2 0.0
21/09:00am 18.3 14.5 7.7 50 5.5 WSW 17 28 9 15 1016.5 1015.5 0.0
21/08:30am 17.5 13.4 8.6 56 4.7 W 20 28 11 15 1016.8 1015.8 0.0
21/08:00am 17.1 13.2 8.8 58 4.4 WSW 19 24 10 13 1017.1 1016.1 0.0
21/07:30am 16.0 11.1 8.5 61 3.9 SW 24 30 13 16 1017.0 1016.0 0.0
21/07:00am 15.4 11.3 8.6 64 3.5 WSW 20 28 11 15 1016.8 1015.8 0.0
21/06:30am 14.4 11.2 8.4 67 3.1 SW 15 20 8 11 1016.7 1015.7 0.0
21/06:00am 13.4 11.2 8.0 70 2.7 WSW 9 15 5 8 1016.3 1015.3 0.0
21/05:30am 12.5 10.3 7.8 73 2.3 WSW 9 11 5 6 1015.9 1014.8 0.0
21/05:00am 12.2 9.1 7.1 71 2.5 SW 13 15 7 8 1015.5 1014.4 0.0
21/04:30am 12.9 9.3 6.9 67 2.9 SW 15 19 8 10 1015.3 1014.2 0.0
21/04:00am 12.9 9.5 6.0 63 3.3 SW 13 15 7 8 1015.1 1014.0 0.0
21/03:30am 13.6 10.5 5.7 59 3.8 SW 11 15 6 8 1014.8 1013.7 0.0
21/03:00am 14.2 11.1 5.6 56 4.1 SSW 11 15 6 8 1014.7 1013.6 0.0
21/02:30am 14.9 11.3 5.1 52 4.7 SW 13 19 7 10 1014.4 1013.4 0.0
21/02:00am 15.6 11.1 4.3 47 5.4 SW 17 20 9 11 1014.4 1013.4 0.0
21/01:30am 16.4 11.2 2.4 39 6.4 SW 19 24 10 13 1014.7 1013.6 0.0
21/01:00am 17.1 12.9 1.5 35 7.1 SSW 13 17 7 9 1014.4 1013.4 0.0
21/12:30am 15.3 12.0 2.5 42 5.8 SW 9 11 5 6 1014.3 1013.3 0.0
21/12:00am 14.8 13.4 3.3 46 5.3 CALM 0 6 0 3 1014.3 1013.3 0.0
 
Date/Time
WST
Temp
°C
App
Temp
°C
Dew
Point
°C
Rel
Hum
%
Delta-T
°C
Wind Press
QNH
hPa
Press
MSL
hPa
Rain since
9am
mm
Dir  Spd
km/h
Gust
km/h
Spd
kts
Gust
kts
20/11:30pm 15.2 13.5 4.0 47 5.3 SW 2 6 1 3 1014.8 1013.7 0.0
20/11:00pm 16.3 12.7 3.0 41 6.2 SW 11 13 6 7 1015.0 1013.9 0.0
20/10:30pm 17.9 14.8 1.4 33 7.5 WNW 7 9 4 5 1015.2 1014.1 0.0
20/10:03pm 18.7 15.1 0.8 30 8.1 WNW 9 11 5 6 1015.4 1014.3 0.0
20/10:00pm 18.5 15.0 1.1 31 7.9 WNW 9 11 5 6 1015.4 1014.3 0.0
20/09:45pm 17.7 14.8 1.7 34 7.3 N 6 7 3 4 1015.5 1014.4 0.0
20/09:30pm 17.7 14.8 2.5 36 7.1 N 7 7 4 4 1015.7 1014.6 0.0
20/09:00pm 18.1 15.1 2.0 34 7.4 NW 7 9 4 5 1015.9 1014.8 0.0
20/08:30pm 19.6 16.6 2.0 31 8.2 WNW 7 9 4 5 1016.1 1015.0 0.0
20/08:00pm 19.5 16.8 2.4 32 8.0 WNW 6 7 3 4 1015.9 1014.8 0.0
20/07:30pm 21.1 19.0 1.9 28 9.1 WNW 2 6 1 3 1015.6 1014.5 0.0
20/07:00pm 22.9 19.5 -0.6 21 10.7 NW 7 7 4 4 1015.4 1014.3 0.0
20/06:30pm 24.4 21.0 -0.7 19 11.6 WNW 7 11 4 6 1015.3 1014.2 0.0

Other Formats:

Comma delimited format used in spreadsheet applications
http://www.bom.gov.au/fwo/IDW60801/IDW60801.94637.axf

JavaScript Object Notation format (JSON) in row-major order
http://www.bom.gov.au/fwo/IDW60801/IDW60801.94637.json